Time;durP1;ratioP1;P1;durP2;ratioP2;P2;SDS_P1;SDS_P2;PMS_P1;PMS_P2;Temp;Humidity;BMP_temperature;BMP_pressure;BME280_temperature;BME280_humidity;BME280_pressure;Samples;Min_cycle;Max_cycle;Signal;HPM_P1;HPM_P2
2021/01/27 00:01:19;;;;;;;13.47;8.77;;;3.20;99.90;;;;;;5092264;28;20507;-76
2021/01/27 00:03:48;;;;;;;13.77;9.77;;;3.20;99.90;;;;;;5089929;28;20459;-76
2021/01/27 00:06:17;;;;;;;13.25;8.88;;;3.20;99.90;;;;;;5088802;28;20450;-76
2021/01/27 00:08:43;;;;;;;13.00;8.13;;;3.20;99.90;;;;;;5092782;28;20619;-76
2021/01/27 00:11:09;;;;;;;16.80;9.88;;;3.10;99.90;;;;;;5092858;28;20216;-76
2021/01/27 00:13:35;;;;;;;15.67;10.27;;;3.20;99.90;;;;;;5092626;28;20214;-76
2021/01/27 00:16:01;;;;;;;14.32;9.90;;;3.10;99.90;;;;;;5092624;28;21020;-76
2021/01/27 00:18:27;;;;;;;14.20;9.40;;;3.20;99.90;;;;;;5092468;28;20181;-76
2021/01/27 00:20:54;;;;;;;14.63;10.10;;;3.20;99.90;;;;;;5092025;28;20189;-76
2021/01/27 00:23:20;;;;;;;14.65;10.30;;;3.20;99.90;;;;;;5092504;28;20185;-76
2021/01/27 00:25:46;;;;;;;18.87;10.97;;;3.20;99.90;;;;;;5092522;28;20528;-76
2021/01/27 00:28:12;;;;;;;16.60;11.20;;;3.30;99.90;;;;;;5092523;28;20446;-76
2021/01/27 00:30:40;;;;;;;16.83;11.63;;;3.30;99.90;;;;;;5092532;28;20220;-76
2021/01/27 00:33:07;;;;;;;17.15;11.45;;;3.30;99.90;;;;;;5092065;28;20216;-76
2021/01/27 00:35:41;;;;;;;18.00;12.50;;;3.30;99.90;;;;;;5092089;28;20746;-76
2021/01/27 00:38:11;;;;;;;16.38;12.27;;;3.30;99.90;;;;;;5092456;28;20263;-76
2021/01/27 00:40:37;;;;;;;19.40;12.30;;;3.30;99.90;;;;;;5092571;28;20291;-76
2021/01/27 00:43:03;;;;;;;17.30;12.95;;;3.30;99.90;;;;;;5092279;28;20181;-76
2021/01/27 00:45:29;;;;;;;17.48;13.00;;;3.30;99.90;;;;;;5092171;28;20287;-76
2021/01/27 00:47:55;;;;;;;17.47;11.77;;;3.30;99.90;;;;;;5091795;28;20764;-76
2021/01/27 00:50:24;;;;;;;17.27;12.80;;;3.30;99.90;;;;;;5091276;28;20446;-77
2021/01/27 00:52:51;;;;;;;19.10;12.65;;;3.30;99.90;;;;;;5089850;28;20528;-76
2021/01/27 00:55:22;;;;;;;17.25;12.82;;;3.30;99.90;;;;;;5089745;28;20250;-76
2021/01/27 00:57:48;;;;;;;18.40;12.10;;;3.30;99.90;;;;;;5092515;28;20263;-76
2021/01/27 01:00:17;;;;;;;18.57;13.07;;;3.40;99.90;;;;;;5092086;28;20185;-76
2021/01/27 01:02:44;;;;;;;19.23;13.32;;;3.30;99.90;;;;;;5092361;28;20439;-77
2021/01/27 01:05:13;;;;;;;21.92;12.75;;;3.30;99.90;;;;;;5092326;28;20661;-76
2021/01/27 01:07:41;;;;;;;19.65;13.60;;;3.30;99.90;;;;;;5092379;28;20184;-76
2021/01/27 01:10:08;;;;;;;16.75;12.75;;;3.30;99.90;;;;;;5092332;28;20268;-76
2021/01/27 01:12:35;;;;;;;18.90;12.45;;;3.40;99.90;;;;;;5092326;28;20189;-77
2021/01/27 01:15:01;;;;;;;17.10;11.82;;;3.40;99.90;;;;;;5092122;28;20284;-77
2021/01/27 01:17:27;;;;;;;18.63;12.30;;;3.40;99.90;;;;;;5092190;28;20271;-76
2021/01/27 01:19:53;;;;;;;19.45;13.60;;;3.40;99.90;;;;;;5092242;28;20200;-79
2021/01/27 01:22:19;;;;;;;21.70;12.53;;;3.40;99.90;;;;;;5092385;28;20177;-76
2021/01/27 01:24:45;;;;;;;17.48;11.20;;;3.40;99.90;;;;;;5090290;28;20537;-76
2021/01/27 01:27:11;;;;;;;20.35;13.00;;;3.40;99.90;;;;;;5091349;28;20678;-77
2021/01/27 01:29:38;;;;;;;18.17;12.07;;;3.40;99.90;;;;;;5091826;28;20272;-76
2021/01/27 01:32:05;;;;;;;18.95;12.10;;;3.40;99.90;;;;;;5093622;28;20211;-76
2021/01/27 01:34:31;;;;;;;18.95;12.65;;;3.40;99.90;;;;;;5096022;28;20268;-76
2021/01/27 01:36:57;;;;;;;17.20;11.65;;;3.40;99.90;;;;;;5095908;28;20307;-76
2021/01/27 01:39:23;;;;;;;16.23;11.80;;;3.40;99.90;;;;;;5095676;28;20636;-76
2021/01/27 01:41:49;;;;;;;16.80;11.37;;;3.40;99.90;;;;;;5095821;28;20523;-76
2021/01/27 01:44:15;;;;;;;15.50;11.48;;;3.40;99.90;;;;;;5095696;28;20949;-76
2021/01/27 01:46:42;;;;;;;18.98;11.65;;;3.40;99.90;;;;;;5095637;28;20222;-76
2021/01/27 01:49:10;;;;;;;19.00;11.68;;;3.30;99.90;;;;;;5095535;28;20330;-76
2021/01/27 01:51:41;;;;;;;19.45;11.90;;;3.30;99.90;;;;;;5079223;28;20185;-77
2021/01/27 01:54:19;;;;;;;19.42;11.70;;;3.30;99.90;;;;;;5095415;28;20699;-76
2021/01/27 01:56:53;;;;;;;15.20;10.70;;;3.30;99.90;;;;;;5095734;28;20206;-76
2021/01/27 01:59:20;;;;;;;17.83;12.05;;;3.40;99.90;;;;;;5095453;28;20191;-76
2021/01/27 02:01:52;;;;;;;16.60;12.00;;;3.30;99.90;;;;;;5095568;28;20702;-76
2021/01/27 02:04:19;;;;;;;16.45;10.90;;;3.30;99.90;;;;;;5095469;28;20642;-75
2021/01/27 02:06:45;;;;;;;16.30;10.85;;;3.30;99.90;;;;;;5095404;28;20577;-76
2021/01/27 02:09:11;;;;;;;18.90;12.30;;;3.20;99.90;;;;;;5095175;28;20416;-76
2021/01/27 02:11:57;;;;;;;14.93;10.57;;;3.20;99.90;;;;;;5095348;28;20180;-76
2021/01/27 02:14:37;;;;;;;15.90;10.57;;;3.10;99.90;;;;;;5095288;28;20454;-76
2021/01/27 02:17:09;;;;;;;19.08;11.27;;;3.00;99.90;;;;;;5095270;28;20302;-76
2021/01/27 02:20:24;;;;;;;16.33;9.73;;;2.90;99.90;;;;;;5092787;28;20228;-76
2021/01/27 02:23:25;;;;;;;16.60;10.75;;;2.90;99.90;;;;;;5094912;28;20269;-76
2021/01/27 02:26:00;;;;;;;15.60;10.57;;;2.90;99.90;;;;;;5080635;28;20714;-76
2021/01/27 02:28:47;;;;;;;16.58;10.55;;;2.80;99.90;;;;;;5094897;28;20650;-76
2021/01/27 02:31:17;;;;;;;16.67;10.25;;;2.80;99.90;;;;;;5094670;28;20216;-76
2021/01/27 02:34:08;;;;;;;15.25;10.48;;;2.80;99.90;;;;;;5094679;28;20204;-75
2021/01/27 02:36:43;;;;;;;19.98;11.02;;;2.80;99.90;;;;;;5094884;28;20394;-76
2021/01/27 02:39:14;;;;;;;18.02;10.20;;;2.80;99.90;;;;;;5094731;28;20180;-76
2021/01/27 02:41:45;;;;;;;18.40;11.93;;;2.70;99.90;;;;;;5094861;28;20234;-76
2021/01/27 02:44:16;;;;;;;16.20;10.65;;;2.60;99.90;;;;;;5094189;28;20180;-76
2021/01/27 02:46:47;;;;;;;19.33;10.30;;;2.60;99.90;;;;;;5094859;28;20600;-76
2021/01/27 02:49:17;;;;;;;18.10;11.32;;;2.50;99.90;;;;;;5094483;28;20280;-76
2021/01/27 02:51:49;;;;;;;19.02;11.25;;;2.50;99.90;;;;;;5094752;28;20181;-75
2021/01/27 02:54:21;;;;;;;18.38;12.20;;;2.40;99.90;;;;;;5086381;28;20297;-76
2021/01/27 02:56:51;;;;;;;16.05;11.10;;;2.40;99.90;;;;;;5087885;28;20296;-76
2021/01/27 02:59:23;;;;;;;19.48;10.55;;;2.30;99.90;;;;;;5094450;28;20271;-75
2021/01/27 03:01:57;;;;;;;19.33;10.98;;;2.20;99.90;;;;;;5094578;28;20295;-76
2021/01/27 03:04:30;;;;;;;21.10;12.25;;;2.20;99.90;;;;;;5094413;28;20181;-76
2021/01/27 03:06:58;;;;;;;19.60;11.82;;;2.20;99.90;;;;;;5094332;28;20272;-77
2021/01/27 03:09:31;;;;;;;20.88;11.80;;;2.10;99.90;;;;;;5094410;28;20283;-76
2021/01/27 03:11:57;;;;;;;24.17;10.70;;;2.00;99.90;;;;;;5094642;28;20279;-77
2021/01/27 03:14:23;;;;;;;16.77;11.43;;;2.00;99.90;;;;;;5094545;28;20296;-76
2021/01/27 03:16:57;;;;;;;19.95;12.50;;;1.80;99.90;;;;;;5094180;28;20220;-75
2021/01/27 03:19:30;;;;;;;20.15;11.55;;;1.80;99.90;;;;;;5094380;28;20330;-76
2021/01/27 03:22:00;;;;;;;23.10;12.98;;;1.80;99.90;;;;;;5094127;28;20288;-76
2021/01/27 03:24:31;;;;;;;23.17;12.27;;;1.70;99.90;;;;;;5094388;28;20287;-76
2021/01/27 03:27:02;;;;;;;17.73;11.95;;;1.60;99.90;;;;;;5094232;28;20288;-76
2021/01/27 03:29:39;;;;;;;16.65;11.30;;;1.60;99.90;;;;;;5094293;28;20220;-75
2021/01/27 03:32:12;;;;;;;23.40;13.13;;;1.50;99.90;;;;;;5093897;28;20719;-76
2021/01/27 03:34:40;;;;;;;18.90;12.25;;;1.50;99.90;;;;;;5092413;28;20275;-76
2021/01/27 03:37:15;;;;;;;25.00;14.30;;;1.50;99.90;;;;;;5094043;28;20220;-76
2021/01/27 03:39:44;;;;;;;23.58;11.52;;;1.40;99.90;;;;;;5093885;28;20199;-76
2021/01/27 03:42:16;;;;;;;26.25;11.90;;;1.40;99.90;;;;;;5093976;28;20193;-76
2021/01/27 03:44:45;;;;;;;18.58;11.13;;;1.40;99.90;;;;;;5093815;28;20185;-77
2021/01/27 03:47:16;;;;;;;21.20;12.40;;;1.30;99.90;;;;;;5094043;28;20205;-77
2021/01/27 03:49:50;;;;;;;18.92;12.07;;;1.40;99.90;;;;;;5093743;28;20703;-77
2021/01/27 03:52:20;;;;;;;16.35;11.05;;;1.40;99.90;;;;;;5093683;28;20197;-76
2021/01/27 03:54:52;;;;;;;20.92;11.82;;;1.30;99.90;;;;;;5092747;28;20188;-77
2021/01/27 03:57:23;;;;;;;22.25;13.32;;;1.30;99.90;;;;;;5093508;28;20247;-77
2021/01/27 03:59:49;;;;;;;23.15;13.52;;;1.30;99.90;;;;;;5093720;28;20330;-76
2021/01/27 04:02:18;;;;;;;20.80;12.75;;;1.20;99.90;;;;;;5093685;28;20196;-75
2021/01/27 04:04:45;;;;;;;23.27;13.38;;;1.20;99.90;;;;;;5093578;28;20198;-75
2021/01/27 04:07:11;;;;;;;24.92;13.05;;;1.20;99.90;;;;;;5093368;28;20284;-76
2021/01/27 04:09:38;;;;;;;21.98;13.07;;;1.20;99.90;;;;;;5093378;28;20283;-76
2021/01/27 04:12:05;;;;;;;20.90;12.88;;;1.20;99.90;;;;;;5093155;28;20275;-76
2021/01/27 04:14:31;;;;;;;22.33;14.20;;;1.20;99.90;;;;;;5093523;28;20280;-76
2021/01/27 04:16:57;;;;;;;25.90;15.23;;;1.20;99.90;;;;;;5093255;28;20220;-76
2021/01/27 04:19:23;;;;;;;28.57;15.47;;;1.20;99.90;;;;;;5093353;28;20678;-76
2021/01/27 04:21:49;;;;;;;23.25;14.15;;;1.20;99.90;;;;;;5093269;28;20489;-76
2021/01/27 04:24:15;;;;;;;25.83;14.15;;;1.20;99.90;;;;;;5093137;28;20235;-76
2021/01/27 04:26:41;;;;;;;21.63;14.55;;;1.20;99.90;;;;;;5093135;28;20216;-76
2021/01/27 04:29:07;;;;;;;27.65;15.88;;;1.30;99.90;;;;;;5093282;28;20291;-76
2021/01/27 04:31:33;;;;;;;24.00;14.40;;;1.20;99.90;;;;;;5093011;28;20228;-76
2021/01/27 04:33:59;;;;;;;25.23;13.83;;;1.30;99.90;;;;;;5093225;28;20450;-76
2021/01/27 04:36:29;;;;;;;23.85;15.02;;;1.30;99.90;;;;;;5092952;28;20482;-75
2021/01/27 04:38:55;;;;;;;25.63;15.02;;;1.40;99.90;;;;;;5093037;28;20241;-76
2021/01/27 04:41:21;;;;;;;25.07;14.23;;;1.40;99.90;;;;;;5093042;28;20189;-76
2021/01/27 04:43:48;;;;;;;27.23;16.17;;;1.50;99.90;;;;;;5093160;28;20466;-76
2021/01/27 04:46:19;;;;;;;26.35;14.93;;;1.50;99.90;;;;;;5092312;28;20933;-75
2021/01/27 04:48:53;;;;;;;24.73;15.05;;;1.60;99.90;;;;;;5072892;28;20228;-76
2021/01/27 04:51:24;;;;;;;26.95;15.82;;;1.70;99.90;;;;;;5072480;28;20191;-76
2021/01/27 04:54:04;;;;;;;33.30;15.98;;;1.80;99.90;;;;;;5078070;28;20234;-76
2021/01/27 04:56:54;;;;;;;27.52;16.67;;;1.90;99.90;;;;;;5072541;28;20224;-75
2021/01/27 04:59:33;;;;;;;26.35;14.95;;;2.00;99.90;;;;;;5072622;28;20275;-75
2021/01/27 05:02:18;;;;;;;28.63;17.27;;;2.00;99.90;;;;;;5072493;28;20664;-75
2021/01/27 05:04:53;;;;;;;30.48;16.10;;;2.10;99.90;;;;;;5072699;28;20185;-75
2021/01/27 05:07:26;;;;;;;29.38;16.45;;;2.20;99.90;;;;;;5076364;28;20226;-76
2021/01/27 05:09:56;;;;;;;28.95;17.85;;;2.20;99.90;;;;;;5076526;28;20280;-76
2021/01/27 05:12:24;;;;;;;26.83;16.20;;;2.30;99.90;;;;;;5076379;28;20296;-76
2021/01/27 05:14:52;;;;;;;24.60;15.57;;;2.30;99.90;;;;;;5076718;28;20193;-76
2021/01/27 05:17:21;;;;;;;26.10;16.73;;;2.40;99.90;;;;;;5076429;28;20216;-76
2021/01/27 05:19:49;;;;;;;28.27;17.30;;;2.50;99.90;;;;;;5076392;28;20193;-76
2021/01/27 05:22:17;;;;;;;26.73;17.10;;;2.50;99.90;;;;;;5076352;28;20272;-76
2021/01/27 05:24:45;;;;;;;28.63;16.63;;;2.50;99.90;;;;;;5076082;28;20281;-76
2021/01/27 05:27:15;;;;;;;29.90;18.77;;;2.60;99.90;;;;;;5076168;28;20197;-76
2021/01/27 05:29:45;;;;;;;25.73;16.60;;;2.60;99.90;;;;;;5076324;28;20629;-76
2021/01/27 05:32:15;;;;;;;28.80;18.20;;;2.70;99.90;;;;;;5075897;28;20308;-76
2021/01/27 05:34:42;;;;;;;28.60;17.25;;;2.70;99.90;;;;;;5076136;28;20352;-76
2021/01/27 05:37:12;;;;;;;38.58;20.23;;;2.70;99.90;;;;;;5075852;28;20209;-76
2021/01/27 05:39:39;;;;;;;31.70;19.77;;;2.70;99.90;;;;;;5075978;28;20212;-76
2021/01/27 05:42:27;;;;;;;33.40;19.75;;;2.70;99.90;;;;;;5075713;28;20655;-76
2021/01/27 05:44:54;;;;;;;30.73;19.25;;;2.80;99.90;;;;;;5076027;28;20243;-76
2021/01/27 05:47:36;;;;;;;28.75;17.85;;;2.80;99.90;;;;;;5075888;28;20221;-76
2021/01/27 05:50:30;;;;;;;31.98;19.58;;;2.80;99.90;;;;;;5075800;28;20189;-76
2021/01/27 05:53:14;;;;;;;33.13;22.08;;;2.90;99.90;;;;;;5076563;28;20204;-76
2021/01/27 05:55:56;;;;;;;31.90;19.77;;;2.90;99.90;;;;;;5095863;28;20220;-76
2021/01/27 05:58:23;;;;;;;38.03;21.75;;;2.90;99.90;;;;;;5095945;28;20283;-76
2021/01/27 06:00:49;;;;;;;33.10;21.02;;;2.90;99.90;;;;;;5095935;28;20199;-76
2021/01/27 06:03:23;;;;;;;29.50;19.02;;;3.00;99.90;;;;;;5095910;28;20196;-76
2021/01/27 06:05:50;;;;;;;30.08;20.25;;;3.00;99.90;;;;;;5095716;28;20629;-76
2021/01/27 06:08:20;;;;;;;31.45;20.52;;;3.00;99.90;;;;;;5095756;28;20267;-76
2021/01/27 06:10:47;;;;;;;29.90;19.05;;;3.10;99.90;;;;;;5095780;28;20284;-76
2021/01/27 06:13:18;;;;;;;33.80;20.80;;;3.10;99.90;;;;;;5096044;28;20651;-76
2021/01/27 06:15:44;;;;;;;39.35;23.15;;;3.10;99.90;;;;;;5095632;28;20300;-75
2021/01/27 06:18:23;;;;;;;33.88;20.92;;;3.20;99.90;;;;;;5094704;28;20287;-76
2021/01/27 06:20:59;;;;;;;34.95;21.15;;;3.20;99.90;;;;;;5095463;28;20275;-76
2021/01/27 06:23:54;;;;;;;35.33;22.27;;;3.20;99.90;;;;;;5095447;28;20745;-76
2021/01/27 06:26:48;;;;;;;35.25;22.13;;;3.30;99.90;;;;;;5095516;28;20283;-76
2021/01/27 06:29:37;;;;;;;35.47;22.35;;;3.30;99.90;;;;;;5090011;28;20615;-76
2021/01/27 06:32:19;;;;;;;43.05;21.92;;;3.20;99.90;;;;;;5095211;28;20349;-76
2021/01/27 06:35:02;;;;;;;35.50;21.88;;;3.30;99.90;;;;;;5095197;28;20279;-76
2021/01/27 06:37:48;;;;;;;40.25;22.55;;;3.30;99.90;;;;;;5095091;28;20227;-76
2021/01/27 06:40:43;;;;;;;41.33;22.52;;;3.30;99.90;;;;;;5095453;28;20279;-76
2021/01/27 06:43:27;;;;;;;38.88;22.48;;;3.30;99.90;;;;;;5093686;28;20193;-76
2021/01/27 06:46:07;;;;;;;37.00;21.60;;;3.30;99.90;;;;;;5095001;28;20287;-76
2021/01/27 06:48:58;;;;;;;36.45;22.08;;;3.30;99.90;;;;;;5094981;28;20291;-76
2021/01/27 06:51:44;;;;;;;35.22;21.60;;;3.40;99.90;;;;;;5095027;28;20279;-75
2021/01/27 06:54:34;;;;;;;35.45;21.70;;;3.40;99.90;;;;;;5093091;28;20268;-76
2021/01/27 06:57:14;;;;;;;38.78;22.95;;;3.40;99.90;;;;;;5074620;28;20217;-76
2021/01/27 07:00:02;;;;;;;34.13;21.70;;;3.40;99.90;;;;;;5074694;28;20284;-75
2021/01/27 07:03:08;;;;;;;34.40;21.80;;;3.40;99.90;;;;;;5074417;28;20276;-76
2021/01/27 07:05:49;;;;;;;29.88;19.30;;;3.40;99.90;;;;;;5074407;28;20318;-76
2021/01/27 07:08:56;;;;;;;36.42;20.75;;;3.40;99.90;;;;;;5074508;28;20346;-76
2021/01/27 07:11:36;;;;;;;36.03;21.38;;;3.40;99.90;;;;;;5055818;28;20276;-77
2021/01/27 07:14:23;;;;;;;38.45;20.73;;;3.40;99.90;;;;;;5074408;28;20185;-76
2021/01/27 07:17:12;;;;;;;37.72;23.33;;;3.40;99.90;;;;;;5073922;28;20223;-76
2021/01/27 07:19:57;;;;;;;32.25;19.80;;;3.40;99.90;;;;;;5074394;28;20268;-76
2021/01/27 07:22:27;;;;;;;36.53;21.23;;;3.40;99.90;;;;;;5074141;28;20276;-77
2021/01/27 07:25:02;;;;;;;31.38;21.38;;;3.40;99.90;;;;;;5074149;28;20276;-76
2021/01/27 07:27:31;;;;;;;34.92;22.48;;;3.50;99.90;;;;;;5073899;28;20242;-76
2021/01/27 07:30:04;;;;;;;33.22;20.55;;;3.40;99.90;;;;;;5082730;28;20221;-76
2021/01/27 07:32:36;;;;;;;27.27;18.02;;;3.50;99.90;;;;;;5091331;28;20221;-76
2021/01/27 07:35:07;;;;;;;37.83;21.80;;;3.50;99.90;;;;;;5093680;28;20625;-76
2021/01/27 07:37:36;;;;;;;34.25;19.95;;;3.60;99.90;;;;;;5093619;28;20354;-76
2021/01/27 07:40:07;;;;;;;32.42;21.10;;;3.60;99.90;;;;;;5093170;28;20185;-76
2021/01/27 07:42:40;;;;;;;37.63;21.02;;;3.60;99.90;;;;;;5079990;28;20192;-76
2021/01/27 07:45:13;;;;;;;35.40;21.90;;;3.60;99.90;;;;;;5083077;28;20210;-76
2021/01/27 07:47:51;;;;;;;35.80;20.90;;;3.70;99.90;;;;;;5080841;28;20192;-76
2021/01/27 07:50:20;;;;;;;29.67;19.40;;;3.70;99.90;;;;;;5092507;28;20200;-76
2021/01/27 07:52:56;;;;;;;29.45;19.40;;;3.70;99.90;;;;;;5093417;28;20227;-76
2021/01/27 07:55:27;;;;;;;30.58;19.60;;;3.70;99.90;;;;;;5073442;28;20276;-75
2021/01/27 07:58:01;;;;;;;31.13;18.98;;;3.80;99.90;;;;;;5073246;28;20217;-76
2021/01/27 08:00:32;;;;;;;32.40;19.10;;;3.80;99.90;;;;;;5073266;28;20283;-76
2021/01/27 08:03:21;;;;;;;37.63;20.83;;;3.90;99.90;;;;;;5072889;28;20727;-76
2021/01/27 08:05:48;;;;;;;28.35;18.88;;;3.90;99.90;;;;;;5074300;28;20180;-77
2021/01/27 08:08:17;;;;;;;31.13;19.75;;;3.90;99.90;;;;;;5080487;28;20346;-76
2021/01/27 08:10:44;;;;;;;33.63;18.25;;;4.00;99.90;;;;;;5081013;28;20235;-76
2021/01/27 08:13:33;;;;;;;28.40;18.98;;;4.10;99.90;;;;;;5081181;28;20240;-76
2021/01/27 08:16:06;;;;;;;32.70;20.02;;;4.10;99.90;;;;;;5080353;28;20247;-76
2021/01/27 08:18:32;;;;;;;27.00;18.77;;;4.20;99.90;;;;;;5080027;28;20184;-76
2021/01/27 08:21:25;;;;;;;31.33;18.85;;;4.30;99.90;;;;;;5080104;28;20420;-76
2021/01/27 08:23:52;;;;;;;27.95;18.05;;;4.30;99.90;;;;;;5079647;28;20189;-77
2021/01/27 08:26:51;;;;;;;25.95;18.60;;;4.30;99.90;;;;;;5087856;28;20216;-76
2021/01/27 08:29:30;;;;;;;28.20;18.83;;;4.30;99.90;;;;;;5092964;28;20200;-76
2021/01/27 08:32:26;;;;;;;23.88;17.10;;;4.40;99.90;;;;;;5076763;28;20252;-76
2021/01/27 08:34:54;;;;;;;27.38;16.80;;;4.40;99.90;;;;;;5065711;28;20220;-77
2021/01/27 08:37:23;;;;;;;30.42;17.92;;;4.40;99.90;;;;;;5081042;28;20299;-76
2021/01/27 08:40:13;;;;;;;28.63;18.05;;;4.40;99.90;;;;;;5092700;28;20233;-76
2021/01/27 08:42:43;;;;;;;30.23;18.50;;;4.40;99.90;;;;;;5092367;28;20192;-77
2021/01/27 08:45:17;;;;;;;24.98;17.75;;;4.30;99.90;;;;;;5080830;28;20707;-76
2021/01/27 08:47:45;;;;;;;28.67;18.17;;;4.30;99.90;;;;;;5082332;28;20282;-76
2021/01/27 08:50:32;;;;;;;25.80;17.67;;;4.30;99.90;;;;;;5092556;28;20622;-76
2021/01/27 08:53:07;;;;;;;28.42;18.25;;;4.30;99.90;;;;;;5084378;28;20185;-76
2021/01/27 08:55:53;;;;;;;27.80;18.40;;;4.30;99.90;;;;;;5092659;28;20270;-76
2021/01/27 08:58:29;;;;;;;28.48;18.25;;;4.30;99.90;;;;;;5092704;28;20199;-77
2021/01/27 09:00:58;;;;;;;27.45;18.40;;;4.30;99.90;;;;;;5092698;28;20284;-75
2021/01/27 09:04:02;;;;;;;28.38;17.70;;;4.30;99.90;;;;;;5092549;28;20227;-75
2021/01/27 09:06:41;;;;;;;24.35;18.05;;;4.40;99.90;;;;;;5092444;28;20196;-76
2021/01/27 09:09:27;;;;;;;27.98;17.48;;;4.50;99.90;;;;;;5088852;28;20189;-76
2021/01/27 09:12:03;;;;;;;25.38;18.30;;;4.50;99.90;;;;;;5091268;28;20189;-76
2021/01/27 09:14:29;;;;;;;26.42;18.05;;;4.50;99.90;;;;;;5092297;28;20188;-76
2021/01/27 09:16:57;;;;;;;26.40;17.73;;;4.50;99.90;;;;;;5092264;28;20307;-76
2021/01/27 09:19:28;;;;;;;28.13;19.73;;;4.40;99.90;;;;;;5092351;28;20279;-76
2021/01/27 09:22:06;;;;;;;22.13;16.67;;;4.50;99.90;;;;;;5092315;28;20195;-76
2021/01/27 09:24:40;;;;;;;30.45;20.35;;;4.50;99.90;;;;;;5091891;28;20214;-76
2021/01/27 09:27:15;;;;;;;28.08;17.73;;;4.50;99.90;;;;;;5092645;28;20189;-76
2021/01/27 09:29:42;;;;;;;28.35;18.63;;;4.50;99.90;;;;;;5092219;28;20279;-76
2021/01/27 09:32:14;;;;;;;29.40;17.85;;;4.40;99.90;;;;;;5092090;28;20291;-76
2021/01/27 09:34:40;;;;;;;26.63;17.77;;;4.40;99.90;;;;;;5091992;28;20220;-76
2021/01/27 09:37:11;;;;;;;25.80;18.20;;;4.30;99.90;;;;;;5092077;28;20238;-75
2021/01/27 09:39:40;;;;;;;26.95;17.50;;;4.30;99.90;;;;;;5091707;28;20666;-75
2021/01/27 09:42:18;;;;;;;27.50;18.77;;;4.30;99.90;;;;;;5092139;28;20279;-75
2021/01/27 09:44:47;;;;;;;26.05;18.17;;;4.40;99.90;;;;;;5091939;28;20206;-75
2021/01/27 09:47:15;;;;;;;28.17;18.98;;;4.50;99.90;;;;;;5091833;28;20188;-76
2021/01/27 09:49:46;;;;;;;25.65;18.10;;;4.50;99.90;;;;;;5092189;28;20212;-75
2021/01/27 09:52:13;;;;;;;25.45;17.67;;;4.60;99.90;;;;;;5092140;28;20280;-75
2021/01/27 09:54:43;;;;;;;25.23;18.38;;;4.70;99.90;;;;;;5095521;28;20196;-76
2021/01/27 09:57:11;;;;;;;24.88;17.23;;;4.80;99.90;;;;;;5095623;28;20223;-76
2021/01/27 09:59:38;;;;;;;22.17;17.52;;;4.90;99.90;;;;;;5095569;28;20591;-76
2021/01/27 10:02:05;;;;;;;23.67;16.40;;;4.90;99.90;;;;;;5095485;28;20275;-76
2021/01/27 10:04:34;;;;;;;24.92;16.70;;;5.10;99.90;;;;;;5095560;28;20227;-76
2021/01/27 10:07:11;;;;;;;23.42;15.40;;;5.20;99.90;;;;;;5095371;28;20283;-75
2021/01/27 10:09:47;;;;;;;22.90;16.70;;;5.40;99.90;;;;;;5095188;28;20220;-75
2021/01/27 10:12:22;;;;;;;23.02;16.92;;;5.50;99.90;;;;;;5095540;28;20279;-77
2021/01/27 10:14:49;;;;;;;24.50;16.58;;;5.50;99.90;;;;;;5095419;28;20225;-76
2021/01/27 10:17:24;;;;;;;20.10;14.88;;;5.40;99.90;;;;;;5095143;28;20729;-75
2021/01/27 10:20:01;;;;;;;26.23;18.35;;;5.40;99.90;;;;;;5095361;28;20543;-75
2021/01/27 10:22:30;;;;;;;29.38;16.40;;;5.30;99.90;;;;;;5095231;28;20276;-79
2021/01/27 10:24:59;;;;;;;20.52;16.15;;;5.20;99.90;;;;;;5094815;28;20643;-73
2021/01/27 10:27:33;;;;;;;25.13;17.98;;;5.10;99.90;;;;;;5091053;28;20555;-73
2021/01/27 10:30:04;;;;;;;22.27;14.90;;;5.00;99.90;;;;;;5089472;28;20298;-73
2021/01/27 10:32:39;;;;;;;22.48;16.35;;;5.00;99.90;;;;;;5091436;28;20216;-73
2021/01/27 10:35:31;;;;;;;22.08;16.35;;;5.10;99.90;;;;;;5094165;28;20218;-73
2021/01/27 10:38:18;;;;;;;21.98;15.68;;;5.20;99.90;;;;;;5094337;28;20244;-73
2021/01/27 10:41:21;;;;;;;21.52;14.15;;;5.20;99.90;;;;;;5086979;28;20224;-73
2021/01/27 10:43:47;;;;;;;26.30;17.58;;;5.20;99.90;;;;;;5078786;28;20216;-73
2021/01/27 10:46:22;;;;;;;22.35;15.38;;;5.20;99.90;;;;;;5094484;28;20180;-73
2021/01/27 10:48:48;;;;;;;23.75;17.25;;;5.10;99.90;;;;;;5093849;28;20184;-73
2021/01/27 10:51:14;;;;;;;23.40;16.13;;;5.10;99.90;;;;;;5094053;28;20588;-72
2021/01/27 10:53:43;;;;;;;23.17;16.17;;;5.00;99.90;;;;;;5094080;28;20187;-73
2021/01/27 10:56:12;;;;;;;22.13;15.85;;;4.90;99.90;;;;;;5094023;28;20211;-73
2021/01/27 10:58:38;;;;;;;23.35;16.58;;;4.80;99.90;;;;;;5094084;28;20276;-73
2021/01/27 11:01:05;;;;;;;23.20;16.58;;;4.70;99.90;;;;;;5094211;28;20271;-73
2021/01/27 11:03:30;;;;;;;24.10;17.30;;;4.60;99.90;;;;;;5093542;28;20669;-73
2021/01/27 11:05:57;;;;;;;28.70;16.77;;;4.50;99.90;;;;;;5093987;28;20189;-73
2021/01/27 11:08:25;;;;;;;24.73;17.73;;;4.40;99.90;;;;;;5093731;28;20529;-73
2021/01/27 11:10:51;;;;;;;27.25;18.70;;;4.50;99.90;;;;;;5093793;28;20195;-73
2021/01/27 11:13:19;;;;;;;25.90;17.25;;;4.40;99.90;;;;;;5092995;28;20180;-73
2021/01/27 11:15:45;;;;;;;24.98;16.67;;;4.40;99.90;;;;;;5092407;28;20191;-73
2021/01/27 11:18:11;;;;;;;24.95;16.75;;;4.40;99.90;;;;;;5093143;28;20301;-73
2021/01/27 11:20:37;;;;;;;27.13;18.03;;;4.40;99.90;;;;;;5090898;28;20650;-73
2021/01/27 11:23:03;;;;;;;27.65;18.75;;;4.40;99.90;;;;;;5086914;28;20457;-74
2021/01/27 11:25:29;;;;;;;20.50;15.77;;;4.40;99.90;;;;;;5092176;28;20220;-73
2021/01/27 11:27:56;;;;;;;28.42;18.10;;;4.40;99.90;;;;;;5090963;28;20191;-74
2021/01/27 11:30:26;;;;;;;24.05;17.35;;;4.40;99.90;;;;;;5092376;28;20265;-74
2021/01/27 11:32:53;;;;;;;24.83;17.30;;;4.40;99.90;;;;;;5089523;28;20303;-74
2021/01/27 11:35:20;;;;;;;24.23;16.67;;;4.50;99.90;;;;;;5091970;28;20185;-74
2021/01/27 11:37:47;;;;;;;26.80;18.15;;;4.50;99.90;;;;;;5092813;28;20568;-73
2021/01/27 11:40:14;;;;;;;23.67;15.63;;;4.50;99.90;;;;;;5093003;28;20238;-72
2021/01/27 11:42:40;;;;;;;24.75;16.02;;;4.60;99.90;;;;;;5087812;28;20196;-72
2021/01/27 11:45:08;;;;;;;26.67;16.73;;;4.70;99.90;;;;;;5090805;28;20279;-71
2021/01/27 11:47:36;;;;;;;25.00;15.00;;;4.70;99.90;;;;;;5091133;28;20524;-74
2021/01/27 11:50:03;;;;;;;25.80;17.08;;;4.80;99.90;;;;;;5090748;28;20193;-74
2021/01/27 11:52:29;;;;;;;23.00;17.17;;;4.80;99.90;;;;;;5086126;28;20193;-72
2021/01/27 11:54:55;;;;;;;21.70;15.20;;;4.90;99.90;;;;;;5092678;28;20188;-73
2021/01/27 11:57:21;;;;;;;19.95;15.90;;;4.90;99.90;;;;;;5091256;28;20210;-72
2021/01/27 11:59:47;;;;;;;23.77;16.88;;;4.90;99.90;;;;;;5092588;28;20940;-73
2021/01/27 12:02:13;;;;;;;23.75;16.40;;;4.90;99.90;;;;;;5087307;28;20279;-73
2021/01/27 12:04:40;;;;;;;28.48;19.80;;;4.90;99.90;;;;;;5085662;28;20250;-72
2021/01/27 12:07:06;;;;;;;28.95;19.38;;;4.80;99.90;;;;;;5089657;28;20599;-73
2021/01/27 12:09:35;;;;;;;24.15;15.45;;;4.80;99.90;;;;;;5092464;28;20185;-73
2021/01/27 12:12:01;;;;;;;23.50;15.38;;;4.80;99.90;;;;;;5092903;28;20189;-73
2021/01/27 12:14:27;;;;;;;24.45;17.05;;;4.80;99.90;;;;;;5092550;28;20279;-73
2021/01/27 12:16:53;;;;;;;23.25;16.67;;;4.90;99.90;;;;;;5091990;28;20204;-73
2021/01/27 12:19:19;;;;;;;22.02;15.00;;;4.90;99.90;;;;;;5092411;28;20591;-73
2021/01/27 12:21:46;;;;;;;24.60;15.30;;;5.00;99.90;;;;;;5092612;28;20212;-72
2021/01/27 12:24:12;;;;;;;17.55;13.77;;;5.10;99.90;;;;;;5092557;28;20442;-73
2021/01/27 12:26:40;;;;;;;17.77;13.18;;;5.20;99.90;;;;;;5091877;28;20275;-72
2021/01/27 12:29:06;;;;;;;19.58;11.70;;;5.40;99.90;;;;;;5092570;28;20730;-72
2021/01/27 12:31:32;;;;;;;19.58;14.32;;;5.70;99.90;;;;;;5092328;28;20268;-74
2021/01/27 12:33:58;;;;;;;14.95;12.18;;;5.90;99.90;;;;;;5092491;28;20267;-73
2021/01/27 12:36:24;;;;;;;14.32;12.07;;;6.10;99.90;;;;;;5091311;28;20668;-73
2021/01/27 12:38:51;;;;;;;15.73;11.70;;;6.30;99.90;;;;;;5090502;28;20189;-73
2021/01/27 12:41:18;;;;;;;14.80;10.68;;;6.40;99.90;;;;;;5091267;28;20177;-72
2021/01/27 12:43:43;;;;;;;16.02;12.48;;;6.50;99.90;;;;;;5092133;28;20733;-73
2021/01/27 12:46:10;;;;;;;16.87;12.30;;;6.70;99.90;;;;;;5092328;28;20200;-73
2021/01/27 12:48:36;;;;;;;18.58;13.35;;;6.80;99.90;;;;;;5092456;28;20454;-73
2021/01/27 12:51:03;;;;;;;15.73;12.38;;;7.00;99.90;;;;;;5092454;28;20280;-73
2021/01/27 12:53:29;;;;;;;14.93;11.75;;;7.00;99.90;;;;;;5092420;28;20275;-73
2021/01/27 12:55:56;;;;;;;14.13;10.95;;;7.10;99.90;;;;;;5090549;28;20180;-73
2021/01/27 12:58:22;;;;;;;14.90;11.32;;;7.10;99.90;;;;;;5088803;28;20216;-73
2021/01/27 13:00:49;;;;;;;13.52;9.20;;;7.10;99.90;;;;;;5092142;28;20192;-73
2021/01/27 13:03:16;;;;;;;10.65;9.20;;;7.20;99.90;;;;;;5092166;28;20181;-73